sensor_id;sensor_type;location;lat;lon;timestamp;temperature;humidity
5466;DHT22;2755;50.728;7.108;2023-04-05T00:02:35;2.50;38.10
5466;DHT22;2755;50.728;7.108;2023-04-05T00:05:02;2.00;37.50
5466;DHT22;2755;50.728;7.108;2023-04-05T00:07:27;1.70;37.10
5466;DHT22;2755;50.728;7.108;2023-04-05T00:09:53;1.80;36.70
5466;DHT22;2755;50.728;7.108;2023-04-05T00:12:19;2.00;37.80
5466;DHT22;2755;50.728;7.108;2023-04-05T00:14:44;2.10;36.10
5466;DHT22;2755;50.728;7.108;2023-04-05T00:17:10;2.00;35.90
5466;DHT22;2755;50.728;7.108;2023-04-05T00:19:36;1.80;38.20
5466;DHT22;2755;50.728;7.108;2023-04-05T00:22:02;1.90;35.20
5466;DHT22;2755;50.728;7.108;2023-04-05T00:24:28;1.30;37.70
5466;DHT22;2755;50.728;7.108;2023-04-05T00:26:55;1.50;35.40
5466;DHT22;2755;50.728;7.108;2023-04-05T00:31:47;1.80;35.40
5466;DHT22;2755;50.728;7.108;2023-04-05T00:36:38;1.90;35.30
5466;DHT22;2755;50.728;7.108;2023-04-05T00:39:04;1.60;37.50
5466;DHT22;2755;50.728;7.108;2023-04-05T00:43:55;2.20;38.10
5466;DHT22;2755;50.728;7.108;2023-04-05T00:46:21;2.00;35.30
5466;DHT22;2755;50.728;7.108;2023-04-05T00:48:47;1.70;34.80
5466;DHT22;2755;50.728;7.108;2023-04-05T00:51:13;1.90;36.30
5466;DHT22;2755;50.728;7.108;2023-04-05T00:53:39;1.90;35.10
5466;DHT22;2755;50.728;7.108;2023-04-05T00:56:07;2.10;38.00
5466;DHT22;2755;50.728;7.108;2023-04-05T00:58:34;1.90;34.80
5466;DHT22;2755;50.728;7.108;2023-04-05T01:01:12;1.80;38.00
5466;DHT22;2755;50.728;7.108;2023-04-05T01:03:42;1.80;36.20
5466;DHT22;2755;50.728;7.108;2023-04-05T01:06:17;1.80;34.50
5466;DHT22;2755;50.728;7.108;2023-04-05T01:08:54;2.10;38.10
5466;DHT22;2755;50.728;7.108;2023-04-05T01:11:24;1.90;34.00
5466;DHT22;2755;50.728;7.108;2023-04-05T01:13:59;1.80;36.10
5466;DHT22;2755;50.728;7.108;2023-04-05T01:16:26;2.20;37.10
5466;DHT22;2755;50.728;7.108;2023-04-05T01:18:53;1.90;37.30
5466;DHT22;2755;50.728;7.108;2023-04-05T01:35:08;1.90;33.80
5466;DHT22;2755;50.728;7.108;2023-04-05T01:37:36;1.90;36.30
5466;DHT22;2755;50.728;7.108;2023-04-05T01:40:03;1.80;33.50
5466;DHT22;2755;50.728;7.108;2023-04-05T01:42:30;1.90;33.60
5466;DHT22;2755;50.728;7.108;2023-04-05T01:44:57;2.00;34.50
5466;DHT22;2755;50.728;7.108;2023-04-05T01:47:22;2.10;33.40
5466;DHT22;2755;50.728;7.108;2023-04-05T01:49:48;2.00;36.20
5466;DHT22;2755;50.728;7.108;2023-04-05T01:52:14;1.50;32.90
5466;DHT22;2755;50.728;7.108;2023-04-05T01:54:39;1.90;34.00
5466;DHT22;2755;50.728;7.108;2023-04-05T01:57:05;1.90;32.90
5466;DHT22;2755;50.728;7.108;2023-04-05T01:59:31;2.10;33.30
5466;DHT22;2755;50.728;7.108;2023-04-05T02:01:56;2.00;35.90
5466;DHT22;2755;50.728;7.108;2023-04-05T02:04:22;2.20;33.40
5466;DHT22;2755;50.728;7.108;2023-04-05T02:06:47;2.30;33.00
5466;DHT22;2755;50.728;7.108;2023-04-05T02:11:39;1.80;32.50
5466;DHT22;2755;50.728;7.108;2023-04-05T02:16:31;2.00;34.10
5466;DHT22;2755;50.728;7.108;2023-04-05T02:18:58;2.60;37.80
5466;DHT22;2755;50.728;7.108;2023-04-05T02:21:25;2.50;39.10
5466;DHT22;2755;50.728;7.108;2023-04-05T02:23:54;2.20;40.30
5466;DHT22;2755;50.728;7.108;2023-04-05T02:26:19;1.80;38.10
5466;DHT22;2755;50.728;7.108;2023-04-05T02:28:45;2.00;40.60
5466;DHT22;2755;50.728;7.108;2023-04-05T02:31:12;2.00;38.20
5466;DHT22;2755;50.728;7.108;2023-04-05T02:33:39;1.60;42.80
5466;DHT22;2755;50.728;7.108;2023-04-05T02:36:06;1.70;38.90
5466;DHT22;2755;50.728;7.108;2023-04-05T02:38:32;1.70;41.40
5466;DHT22;2755;50.728;7.108;2023-04-05T02:40:58;1.80;43.40
5466;DHT22;2755;50.728;7.108;2023-04-05T02:43:24;2.10;46.10
5466;DHT22;2755;50.728;7.108;2023-04-05T02:45:50;1.80;42.80
5466;DHT22;2755;50.728;7.108;2023-04-05T02:48:16;2.00;43.00
5466;DHT22;2755;50.728;7.108;2023-04-05T02:50:47;1.70;41.10
5466;DHT22;2755;50.728;7.108;2023-04-05T02:53:13;1.70;41.70
5466;DHT22;2755;50.728;7.108;2023-04-05T02:55:39;1.70;46.80
5466;DHT22;2755;50.728;7.108;2023-04-05T02:58:06;1.50;47.00
5466;DHT22;2755;50.728;7.108;2023-04-05T03:00:32;1.90;46.90
5466;DHT22;2755;50.728;7.108;2023-04-05T03:02:58;0.30;43.60
5466;DHT22;2755;50.728;7.108;2023-04-05T03:05:24;1.40;45.20
5466;DHT22;2755;50.728;7.108;2023-04-05T03:07:49;1.20;43.90
5466;DHT22;2755;50.728;7.108;2023-04-05T03:10:20;0.70;47.00
5466;DHT22;2755;50.728;7.108;2023-04-05T03:12:47;0.90;47.20
5466;DHT22;2755;50.728;7.108;2023-04-05T03:15:12;1.30;49.50
5466;DHT22;2755;50.728;7.108;2023-04-05T03:17:38;1.00;46.80
5466;DHT22;2755;50.728;7.108;2023-04-05T03:20:04;0.90;47.50
5466;DHT22;2755;50.728;7.108;2023-04-05T03:22:33;0.90;48.90
5466;DHT22;2755;50.728;7.108;2023-04-05T03:25:00;0.90;48.70
5466;DHT22;2755;50.728;7.108;2023-04-05T03:27:26;1.10;48.80
5466;DHT22;2755;50.728;7.108;2023-04-05T03:29:53;1.20;49.70
5466;DHT22;2755;50.728;7.108;2023-04-05T03:32:19;0.90;53.40
5466;DHT22;2755;50.728;7.108;2023-04-05T03:34:44;0.80;51.20
5466;DHT22;2755;50.728;7.108;2023-04-05T03:37:10;1.40;51.00
5466;DHT22;2755;50.728;7.108;2023-04-05T03:39:35;1.00;53.10
5466;DHT22;2755;50.728;7.108;2023-04-05T03:42:01;0.30;50.30
5466;DHT22;2755;50.728;7.108;2023-04-05T03:44:27;1.00;54.10
5466;DHT22;2755;50.728;7.108;2023-04-05T03:46:52;0.20;52.70
5466;DHT22;2755;50.728;7.108;2023-04-05T03:49:18;0.50;58.60
5466;DHT22;2755;50.728;7.108;2023-04-05T03:54:11;0.90;62.00
5466;DHT22;2755;50.728;7.108;2023-04-05T03:56:37;0.60;62.80
5466;DHT22;2755;50.728;7.108;2023-04-05T03:59:02;0.30;65.00
5466;DHT22;2755;50.728;7.108;2023-04-05T04:01:29;0.70;66.70
5466;DHT22;2755;50.728;7.108;2023-04-05T04:03:54;1.10;62.90
5466;DHT22;2755;50.728;7.108;2023-04-05T04:06:20;0.60;60.90
5466;DHT22;2755;50.728;7.108;2023-04-05T04:08:46;0.20;64.30
5466;DHT22;2755;50.728;7.108;2023-04-05T04:11:11;0.40;62.70
5466;DHT22;2755;50.728;7.108;2023-04-05T04:16:03;0.40;64.70
5466;DHT22;2755;50.728;7.108;2023-04-05T04:18:29;0.40;64.60
5466;DHT22;2755;50.728;7.108;2023-04-05T04:20:54;-0.30;71.10
5466;DHT22;2755;50.728;7.108;2023-04-05T04:23:21;0.40;73.20
5466;DHT22;2755;50.728;7.108;2023-04-05T04:25:49;0.40;74.10
5466;DHT22;2755;50.728;7.108;2023-04-05T04:28:19;0.30;77.00
5466;DHT22;2755;50.728;7.108;2023-04-05T04:30:44;0.50;70.10
5466;DHT22;2755;50.728;7.108;2023-04-05T04:33:11;0.30;70.50
5466;DHT22;2755;50.728;7.108;2023-04-05T04:35:36;0.40;71.70
5466;DHT22;2755;50.728;7.108;2023-04-05T04:38:05;0.30;70.70
5466;DHT22;2755;50.728;7.108;2023-04-05T04:40:36;0.30;75.40
5466;DHT22;2755;50.728;7.108;2023-04-05T04:43:07;0.20;73.50
5466;DHT22;2755;50.728;7.108;2023-04-05T04:45:47;0.30;78.70
5466;DHT22;2755;50.728;7.108;2023-04-05T04:48:16;0.20;76.60
5466;DHT22;2755;50.728;7.108;2023-04-05T04:50:42;0.20;82.30
5466;DHT22;2755;50.728;7.108;2023-04-05T04:53:09;0.20;78.50
5466;DHT22;2755;50.728;7.108;2023-04-05T04:55:34;1.00;83.20
5466;DHT22;2755;50.728;7.108;2023-04-05T04:58:01;0.20;79.80
5466;DHT22;2755;50.728;7.108;2023-04-05T05:00:33;0.30;83.00
5466;DHT22;2755;50.728;7.108;2023-04-05T05:02:59;0.30;81.90
5466;DHT22;2755;50.728;7.108;2023-04-05T05:05:25;0.40;84.50
5466;DHT22;2755;50.728;7.108;2023-04-05T05:07:52;0.10;80.40
5466;DHT22;2755;50.728;7.108;2023-04-05T05:10:18;0.20;81.30
5466;DHT22;2755;50.728;7.108;2023-04-05T05:12:44;0.10;81.20
5466;DHT22;2755;50.728;7.108;2023-04-05T05:15:11;-0.90;80.60
5466;DHT22;2755;50.728;7.108;2023-04-05T05:17:37;0.00;78.50
5466;DHT22;2755;50.728;7.108;2023-04-05T05:20:04;0.20;79.30
5466;DHT22;2755;50.728;7.108;2023-04-05T05:22:31;0.00;81.50
5466;DHT22;2755;50.728;7.108;2023-04-05T05:24:56;0.40;83.60
5466;DHT22;2755;50.728;7.108;2023-04-05T05:27:22;0.00;83.80
5466;DHT22;2755;50.728;7.108;2023-04-05T05:29:47;0.70;87.30
5466;DHT22;2755;50.728;7.108;2023-04-05T05:34:41;0.30;86.80
5466;DHT22;2755;50.728;7.108;2023-04-05T05:37:10;0.70;81.70
5466;DHT22;2755;50.728;7.108;2023-04-05T05:39:36;0.70;86.20
5466;DHT22;2755;50.728;7.108;2023-04-05T05:42:02;1.40;81.00
5466;DHT22;2755;50.728;7.108;2023-04-05T05:44:28;1.10;82.50
5466;DHT22;2755;50.728;7.108;2023-04-05T05:46:55;1.50;77.70
5466;DHT22;2755;50.728;7.108;2023-04-05T05:49:20;1.90;79.20
5466;DHT22;2755;50.728;7.108;2023-04-05T05:54:14;1.70;72.10
5466;DHT22;2755;50.728;7.108;2023-04-05T05:59:05;2.10;65.90
5466;DHT22;2755;50.728;7.108;2023-04-05T06:03:59;2.80;69.00
5466;DHT22;2755;50.728;7.108;2023-04-05T06:06:24;2.70;66.20
5466;DHT22;2755;50.728;7.108;2023-04-05T06:11:18;3.70;54.80
5466;DHT22;2755;50.728;7.108;2023-04-05T06:13:44;4.20;41.20
5466;DHT22;2755;50.728;7.108;2023-04-05T06:16:10;4.20;45.30
5466;DHT22;2755;50.728;7.108;2023-04-05T06:18:36;5.40;38.70
5466;DHT22;2755;50.728;7.108;2023-04-05T06:21:01;6.00;35.50
5466;DHT22;2755;50.728;7.108;2023-04-05T06:23:27;5.90;33.40
5466;DHT22;2755;50.728;7.108;2023-04-05T06:25:53;6.20;27.30
5466;DHT22;2755;50.728;7.108;2023-04-05T06:28:18;7.10;28.30
5466;DHT22;2755;50.728;7.108;2023-04-05T06:33:10;7.60;23.20
5466;DHT22;2755;50.728;7.108;2023-04-05T06:35:35;8.00;18.80
5466;DHT22;2755;50.728;7.108;2023-04-05T06:40:27;8.60;14.70
5466;DHT22;2755;50.728;7.108;2023-04-05T06:42:53;8.50;14.60
5466;DHT22;2755;50.728;7.108;2023-04-05T06:47:45;8.60;12.40
5466;DHT22;2755;50.728;7.108;2023-04-05T06:55:03;8.10;3.00
5466;DHT22;2755;50.728;7.108;2023-04-05T06:57:29;9.10;4.20
5466;DHT22;2755;50.728;7.108;2023-04-05T06:59:54;8.60;2.50
5466;DHT22;2755;50.728;7.108;2023-04-05T07:02:20;9.00;1.20
5466;DHT22;2755;50.728;7.108;2023-04-05T07:04:46;8.70;1.00
5466;DHT22;2755;50.728;7.108;2023-04-05T07:12:06;8.60;1.00
5466;DHT22;2755;50.728;7.108;2023-04-05T07:14:33;9.00;1.00
5466;DHT22;2755;50.728;7.108;2023-04-05T07:19:25;8.70;1.00
5466;DHT22;2755;50.728;7.108;2023-04-05T07:21:51;9.30;1.00
5466;DHT22;2755;50.728;7.108;2023-04-05T07:24:17;9.40;1.00
5466;DHT22;2755;50.728;7.108;2023-04-05T07:29:09;10.00;1.00
5466;DHT22;2755;50.728;7.108;2023-04-05T07:31:35;10.20;1.00
5466;DHT22;2755;50.728;7.108;2023-04-05T07:36:28;10.10;1.00
5466;DHT22;2755;50.728;7.108;2023-04-05T07:38:57;10.20;1.00
5466;DHT22;2755;50.728;7.108;2023-04-05T07:41:27;10.40;1.00
5466;DHT22;2755;50.728;7.108;2023-04-05T07:43:59;10.50;1.00
5466;DHT22;2755;50.728;7.108;2023-04-05T07:51:17;11.50;1.00
5466;DHT22;2755;50.728;7.108;2023-04-05T07:56:10;12.20;1.00
5466;DHT22;2755;50.728;7.108;2023-04-05T07:58:36;11.80;1.00
5466;DHT22;2755;50.728;7.108;2023-04-05T08:01:06;12.20;1.00
5466;DHT22;2755;50.728;7.108;2023-04-05T08:03:32;13.10;1.00
5466;DHT22;2755;50.728;7.108;2023-04-05T08:06:08;13.20;1.00
5466;DHT22;2755;50.728;7.108;2023-04-05T08:11:02;12.90;1.00
5466;DHT22;2755;50.728;7.108;2023-04-05T08:15:56;13.00;1.00
5466;DHT22;2755;50.728;7.108;2023-04-05T08:20:52;12.60;1.00
5466;DHT22;2755;50.728;7.108;2023-04-05T08:23:18;11.80;1.00
5466;DHT22;2755;50.728;7.108;2023-04-05T08:28:10;12.70;1.00
5466;DHT22;2755;50.728;7.108;2023-04-05T08:30:36;12.40;1.00
5466;DHT22;2755;50.728;7.108;2023-04-05T08:40:32;13.50;1.00
5466;DHT22;2755;50.728;7.108;2023-04-05T08:45:51;13.70;1.00
5466;DHT22;2755;50.728;7.108;2023-04-05T08:48:18;13.10;1.00
5466;DHT22;2755;50.728;7.108;2023-04-05T08:50:53;13.10;1.00
5466;DHT22;2755;50.728;7.108;2023-04-05T08:53:19;13.50;1.00
5466;DHT22;2755;50.728;7.108;2023-04-05T08:55:49;13.00;1.00
5466;DHT22;2755;50.728;7.108;2023-04-05T08:58:20;13.10;1.00
5466;DHT22;2755;50.728;7.108;2023-04-05T09:00:49;13.80;1.00
5466;DHT22;2755;50.728;7.108;2023-04-05T09:03:20;13.70;1.00
5466;DHT22;2755;50.728;7.108;2023-04-05T09:05:49;13.90;1.00
5466;DHT22;2755;50.728;7.108;2023-04-05T09:08:16;14.40;1.00
5466;DHT22;2755;50.728;7.108;2023-04-05T09:10:42;13.90;1.00
5466;DHT22;2755;50.728;7.108;2023-04-05T09:13:08;13.80;1.00
5466;DHT22;2755;50.728;7.108;2023-04-05T09:15:35;13.90;1.00
5466;DHT22;2755;50.728;7.108;2023-04-05T09:18:01;13.50;1.00
5466;DHT22;2755;50.728;7.108;2023-04-05T09:22:55;13.90;1.00
5466;DHT22;2755;50.728;7.108;2023-04-05T09:25:37;13.50;1.00
5466;DHT22;2755;50.728;7.108;2023-04-05T09:28:08;13.50;1.00
5466;DHT22;2755;50.728;7.108;2023-04-05T09:33:02;13.00;1.00
5466;DHT22;2755;50.728;7.108;2023-04-05T09:35:30;14.40;1.00
5466;DHT22;2755;50.728;7.108;2023-04-05T09:38:00;14.60;1.00
5466;DHT22;2755;50.728;7.108;2023-04-05T09:40:44;14.70;1.00
5466;DHT22;2755;50.728;7.108;2023-04-05T09:43:11;10.70;1.00
5466;DHT22;2755;50.728;7.108;2023-04-05T09:45:41;14.80;1.00
5466;DHT22;2755;50.728;7.108;2023-04-05T09:48:08;15.20;1.00
5466;DHT22;2755;50.728;7.108;2023-04-05T09:50:34;15.20;1.00
5466;DHT22;2755;50.728;7.108;2023-04-05T09:53:08;15.00;1.00
5466;DHT22;2755;50.728;7.108;2023-04-05T09:55:34;15.20;1.00
5466;DHT22;2755;50.728;7.108;2023-04-05T09:58:00;15.30;1.00
5466;DHT22;2755;50.728;7.108;2023-04-05T10:00:28;15.30;1.00
5466;DHT22;2755;50.728;7.108;2023-04-05T10:02:55;15.40;1.00
5466;DHT22;2755;50.728;7.108;2023-04-05T10:05:26;15.50;1.00
5466;DHT22;2755;50.728;7.108;2023-04-05T10:07:54;15.20;1.00
5466;DHT22;2755;50.728;7.108;2023-04-05T10:10:21;15.10;1.00
5466;DHT22;2755;50.728;7.108;2023-04-05T10:12:47;14.90;1.00
5466;DHT22;2755;50.728;7.108;2023-04-05T10:15:14;15.00;1.00
5466;DHT22;2755;50.728;7.108;2023-04-05T10:20:16;15.10;1.00
5466;DHT22;2755;50.728;7.108;2023-04-05T10:25:30;14.50;1.00
5466;DHT22;2755;50.728;7.108;2023-04-05T10:28:29;14.70;1.00
5466;DHT22;2755;50.728;7.108;2023-04-05T10:31:17;14.60;1.00
5466;DHT22;2755;50.728;7.108;2023-04-05T10:33:46;15.00;1.00
5466;DHT22;2755;50.728;7.108;2023-04-05T10:41:53;14.60;1.00
5466;DHT22;2755;50.728;7.108;2023-04-05T10:44:19;14.80;1.00
5466;DHT22;2755;50.728;7.108;2023-04-05T10:46:45;15.70;1.00
5466;DHT22;2755;50.728;7.108;2023-04-05T10:51:47;15.10;1.00
5466;DHT22;2755;50.728;7.108;2023-04-05T10:54:13;15.60;1.00
5466;DHT22;2755;50.728;7.108;2023-04-05T10:56:42;16.10;1.00
5466;DHT22;2755;50.728;7.108;2023-04-05T10:59:09;15.50;1.00
5466;DHT22;2755;50.728;7.108;2023-04-05T11:01:36;15.90;1.00
5466;DHT22;2755;50.728;7.108;2023-04-05T11:04:13;15.70;1.00
5466;DHT22;2755;50.728;7.108;2023-04-05T11:06:38;16.00;1.00
5466;DHT22;2755;50.728;7.108;2023-04-05T11:09:11;16.10;1.00
5466;DHT22;2755;50.728;7.108;2023-04-05T11:11:47;16.10;1.00
5466;DHT22;2755;50.728;7.108;2023-04-05T11:14:24;15.90;1.00
5466;DHT22;2755;50.728;7.108;2023-04-05T11:16:54;15.90;1.00
5466;DHT22;2755;50.728;7.108;2023-04-05T11:22:11;16.10;1.00
5466;DHT22;2755;50.728;7.108;2023-04-05T11:25:02;16.40;1.00
5466;DHT22;2755;50.728;7.108;2023-04-05T11:27:32;16.50;1.00
5466;DHT22;2755;50.728;7.108;2023-04-05T11:29:59;16.30;1.00
5466;DHT22;2755;50.728;7.108;2023-04-05T11:32:45;16.40;1.00
5466;DHT22;2755;50.728;7.108;2023-04-05T11:35:15;16.50;1.00
5466;DHT22;2755;50.728;7.108;2023-04-05T11:40:36;16.40;1.00
5466;DHT22;2755;50.728;7.108;2023-04-05T11:43:05;16.40;1.00
5466;DHT22;2755;50.728;7.108;2023-04-05T11:45:33;15.70;1.00
5466;DHT22;2755;50.728;7.108;2023-04-05T11:48:08;15.80;1.00
5466;DHT22;2755;50.728;7.108;2023-04-05T11:50:39;16.10;1.00
5466;DHT22;2755;50.728;7.108;2023-04-05T11:53:16;15.70;1.00
5466;DHT22;2755;50.728;7.108;2023-04-05T11:55:43;15.50;1.00
5466;DHT22;2755;50.728;7.108;2023-04-05T11:58:16;16.30;1.00
5466;DHT22;2755;50.728;7.108;2023-04-05T12:00:44;16.80;1.00
5466;DHT22;2755;50.728;7.108;2023-04-05T12:03:13;17.00;1.00
5466;DHT22;2755;50.728;7.108;2023-04-05T12:10:37;17.50;1.00
5466;DHT22;2755;50.728;7.108;2023-04-05T12:15:29;17.90;1.00
5466;DHT22;2755;50.728;7.108;2023-04-05T12:20:24;17.90;1.00
5466;DHT22;2755;50.728;7.108;2023-04-05T12:22:55;17.70;1.00
5466;DHT22;2755;50.728;7.108;2023-04-05T12:25:21;17.60;1.00
5466;DHT22;2755;50.728;7.108;2023-04-05T12:27:47;17.60;1.00
5466;DHT22;2755;50.728;7.108;2023-04-05T12:30:17;17.80;1.00
5466;DHT22;2755;50.728;7.108;2023-04-05T12:35:29;18.70;1.00
5466;DHT22;2755;50.728;7.108;2023-04-05T12:38:00;17.50;1.00
5466;DHT22;2755;50.728;7.108;2023-04-05T12:40:27;17.60;1.00
5466;DHT22;2755;50.728;7.108;2023-04-05T12:43:04;17.40;1.00
5466;DHT22;2755;50.728;7.108;2023-04-05T12:45:30;16.80;1.00
5466;DHT22;2755;50.728;7.108;2023-04-05T12:50:32;16.70;1.00
5466;DHT22;2755;50.728;7.108;2023-04-05T12:52:59;16.00;1.00
5466;DHT22;2755;50.728;7.108;2023-04-05T12:57:54;14.60;1.00
5466;DHT22;2755;50.728;7.108;2023-04-05T13:00:21;14.00;1.00
5466;DHT22;2755;50.728;7.108;2023-04-05T13:02:52;13.80;1.00
5466;DHT22;2755;50.728;7.108;2023-04-05T13:05:38;13.60;1.00
5466;DHT22;2755;50.728;7.108;2023-04-05T13:10:30;13.30;1.00
5466;DHT22;2755;50.728;7.108;2023-04-05T13:12:56;13.10;1.00
5466;DHT22;2755;50.728;7.108;2023-04-05T13:15:22;12.60;1.00
5466;DHT22;2755;50.728;7.108;2023-04-05T13:17:47;13.10;1.00
5466;DHT22;2755;50.728;7.108;2023-04-05T13:25:08;12.60;1.00
5466;DHT22;2755;50.728;7.108;2023-04-05T13:27:34;12.10;1.00
5466;DHT22;2755;50.728;7.108;2023-04-05T13:32:26;12.10;1.00
5466;DHT22;2755;50.728;7.108;2023-04-05T13:34:52;12.10;1.00
5466;DHT22;2755;50.728;7.108;2023-04-05T13:39:43;11.80;1.00
5466;DHT22;2755;50.728;7.108;2023-04-05T13:42:09;11.50;1.00
5466;DHT22;2755;50.728;7.108;2023-04-05T13:44:35;11.60;1.00
5466;DHT22;2755;50.728;7.108;2023-04-05T13:51:52;11.60;1.00
5466;DHT22;2755;50.728;7.108;2023-04-05T13:59:10;11.90;1.00
5466;DHT22;2755;50.728;7.108;2023-04-05T14:06:32;11.60;1.00
5466;DHT22;2755;50.728;7.108;2023-04-05T14:16:16;11.50;1.00
5466;DHT22;2755;50.728;7.108;2023-04-05T14:18:42;10.90;1.00
5466;DHT22;2755;50.728;7.108;2023-04-05T14:23:34;11.20;1.00
5466;DHT22;2755;50.728;7.108;2023-04-05T14:30:51;11.20;1.00
5466;DHT22;2755;50.728;7.108;2023-04-05T14:35:44;11.80;1.00
5466;DHT22;2755;50.728;7.108;2023-04-05T14:38:10;11.20;1.00
5466;DHT22;2755;50.728;7.108;2023-04-05T14:40:35;11.50;1.00
5466;DHT22;2755;50.728;7.108;2023-04-05T14:50:20;11.50;1.00
5466;DHT22;2755;50.728;7.108;2023-04-05T14:52:46;11.30;1.00
5466;DHT22;2755;50.728;7.108;2023-04-05T14:57:38;11.40;1.00
5466;DHT22;2755;50.728;7.108;2023-04-05T15:00:05;11.30;1.00
5466;DHT22;2755;50.728;7.108;2023-04-05T15:04:57;11.10;1.00
5466;DHT22;2755;50.728;7.108;2023-04-05T15:07:26;11.20;1.00
5466;DHT22;2755;50.728;7.108;2023-04-05T15:09:52;10.80;1.00
5466;DHT22;2755;50.728;7.108;2023-04-05T15:12:18;11.40;1.00
5466;DHT22;2755;50.728;7.108;2023-04-05T15:17:40;11.10;1.00
5466;DHT22;2755;50.728;7.108;2023-04-05T15:22:32;11.40;1.00
5466;DHT22;2755;50.728;7.108;2023-04-05T15:24:58;11.40;1.00
5466;DHT22;2755;50.728;7.108;2023-04-05T15:32:16;11.10;1.00
5466;DHT22;2755;50.728;7.108;2023-04-05T15:37:07;11.10;1.00
5466;DHT22;2755;50.728;7.108;2023-04-05T15:42:01;10.80;1.00
5466;DHT22;2755;50.728;7.108;2023-04-05T15:49:19;10.70;1.00
5466;DHT22;2755;50.728;7.108;2023-04-05T15:51:45;11.00;1.00
5466;DHT22;2755;50.728;7.108;2023-04-05T15:54:10;10.70;1.00
5466;DHT22;2755;50.728;7.108;2023-04-05T16:08:54;10.30;1.00
5466;DHT22;2755;50.728;7.108;2023-04-05T16:11:20;10.50;1.00
5466;DHT22;2755;50.728;7.108;2023-04-05T16:13:46;11.50;1.00
5466;DHT22;2755;50.728;7.108;2023-04-05T16:16:11;11.10;1.00
5466;DHT22;2755;50.728;7.108;2023-04-05T16:18:37;10.50;1.00
5466;DHT22;2755;50.728;7.108;2023-04-05T16:21:03;9.80;1.00
5466;DHT22;2755;50.728;7.108;2023-04-05T16:23:30;10.60;1.00
5466;DHT22;2755;50.728;7.108;2023-04-05T16:25:55;11.60;1.00
5466;DHT22;2755;50.728;7.108;2023-04-05T16:28:21;10.60;1.00
5466;DHT22;2755;50.728;7.108;2023-04-05T16:30:46;11.70;1.00
5466;DHT22;2755;50.728;7.108;2023-04-05T16:33:12;10.20;1.00
5466;DHT22;2755;50.728;7.108;2023-04-05T16:38:04;10.70;1.00
5466;DHT22;2755;50.728;7.108;2023-04-05T16:40:31;10.60;1.00
5466;DHT22;2755;50.728;7.108;2023-04-05T16:42:57;10.20;1.00
5466;DHT22;2755;50.728;7.108;2023-04-05T16:45:22;9.70;1.00
5466;DHT22;2755;50.728;7.108;2023-04-05T16:47:49;10.20;1.00
5466;DHT22;2755;50.728;7.108;2023-04-05T16:50:15;10.00;1.00
5466;DHT22;2755;50.728;7.108;2023-04-05T16:52:41;10.20;1.00
5466;DHT22;2755;50.728;7.108;2023-04-05T16:55:07;10.10;1.00
5466;DHT22;2755;50.728;7.108;2023-04-05T16:57:33;10.40;1.00
5466;DHT22;2755;50.728;7.108;2023-04-05T17:04:51;10.20;1.00
5466;DHT22;2755;50.728;7.108;2023-04-05T17:09:43;13.20;1.00
5466;DHT22;2755;50.728;7.108;2023-04-05T17:14:35;10.50;1.00
5466;DHT22;2755;50.728;7.108;2023-04-05T17:17:00;9.80;1.00
5466;DHT22;2755;50.728;7.108;2023-04-05T17:21:52;10.00;1.00
5466;DHT22;2755;50.728;7.108;2023-04-05T17:24:17;10.00;1.00
5466;DHT22;2755;50.728;7.108;2023-04-05T17:26:43;10.20;1.00
5466;DHT22;2755;50.728;7.108;2023-04-05T17:29:09;9.60;1.00
5466;DHT22;2755;50.728;7.108;2023-04-05T17:31:37;9.70;1.00
5466;DHT22;2755;50.728;7.108;2023-04-05T17:36:28;9.30;1.00
5466;DHT22;2755;50.728;7.108;2023-04-05T17:38:54;9.30;1.00
5466;DHT22;2755;50.728;7.108;2023-04-05T17:43:46;9.60;1.00
5466;DHT22;2755;50.728;7.108;2023-04-05T17:46:11;9.10;1.00
5466;DHT22;2755;50.728;7.108;2023-04-05T17:48:42;9.20;1.00
5466;DHT22;2755;50.728;7.108;2023-04-05T17:51:28;9.20;1.00
5466;DHT22;2755;50.728;7.108;2023-04-05T17:53:57;9.10;1.00
5466;DHT22;2755;50.728;7.108;2023-04-05T17:56:26;9.10;1.00
5466;DHT22;2755;50.728;7.108;2023-04-05T18:04:07;8.90;1.00
5466;DHT22;2755;50.728;7.108;2023-04-05T18:23:49;8.20;1.00
5466;DHT22;2755;50.728;7.108;2023-04-05T18:26:15;7.40;1.00
5466;DHT22;2755;50.728;7.108;2023-04-05T18:31:08;8.40;1.00
5466;DHT22;2755;50.728;7.108;2023-04-05T18:36:02;7.90;1.00
5466;DHT22;2755;50.728;7.108;2023-04-05T18:41:03;7.10;1.00
5466;DHT22;2755;50.728;7.108;2023-04-05T18:43:35;7.40;1.00
5466;DHT22;2755;50.728;7.108;2023-04-05T18:46:00;7.30;1.00
5466;DHT22;2755;50.728;7.108;2023-04-05T18:48:26;7.70;1.00
5466;DHT22;2755;50.728;7.108;2023-04-05T18:50:52;7.50;1.00
5466;DHT22;2755;50.728;7.108;2023-04-05T18:53:21;7.30;1.00
5466;DHT22;2755;50.728;7.108;2023-04-05T18:55:50;7.10;1.00
5466;DHT22;2755;50.728;7.108;2023-04-05T18:58:16;7.10;1.00
5466;DHT22;2755;50.728;7.108;2023-04-05T19:00:42;6.90;1.00
5466;DHT22;2755;50.728;7.108;2023-04-05T19:03:10;7.10;1.00
5466;DHT22;2755;50.728;7.108;2023-04-05T19:05:35;6.70;1.00
5466;DHT22;2755;50.728;7.108;2023-04-05T19:10:27;6.90;1.00
5466;DHT22;2755;50.728;7.108;2023-04-05T19:12:59;7.00;1.00
5466;DHT22;2755;50.728;7.108;2023-04-05T19:15:27;6.30;1.00
5466;DHT22;2755;50.728;7.108;2023-04-05T19:17:52;6.30;1.00
5466;DHT22;2755;50.728;7.108;2023-04-05T19:20:18;6.50;1.00
5466;DHT22;2755;50.728;7.108;2023-04-05T19:25:12;6.30;1.00
5466;DHT22;2755;50.728;7.108;2023-04-05T19:27:39;6.20;1.00
5466;DHT22;2755;50.728;7.108;2023-04-05T19:30:05;5.60;1.00
5466;DHT22;2755;50.728;7.108;2023-04-05T19:32:31;6.00;1.00
5466;DHT22;2755;50.728;7.108;2023-04-05T19:34:56;6.50;1.00
5466;DHT22;2755;50.728;7.108;2023-04-05T19:37:25;5.90;1.00
5466;DHT22;2755;50.728;7.108;2023-04-05T19:39:50;6.10;1.00
5466;DHT22;2755;50.728;7.108;2023-04-05T19:42:17;6.40;1.00
5466;DHT22;2755;50.728;7.108;2023-04-05T19:44:53;5.80;1.00
5466;DHT22;2755;50.728;7.108;2023-04-05T19:47:20;5.70;1.00
5466;DHT22;2755;50.728;7.108;2023-04-05T19:49:47;5.30;1.00
5466;DHT22;2755;50.728;7.108;2023-04-05T19:52:44;5.40;1.00
5466;DHT22;2755;50.728;7.108;2023-04-05T19:55:30;5.60;1.00
5466;DHT22;2755;50.728;7.108;2023-04-05T19:57:57;5.00;1.00
5466;DHT22;2755;50.728;7.108;2023-04-05T20:00:45;6.00;1.00
5466;DHT22;2755;50.728;7.108;2023-04-05T20:08:33;5.50;1.00
5466;DHT22;2755;50.728;7.108;2023-04-05T20:10:59;5.50;1.00
5466;DHT22;2755;50.728;7.108;2023-04-05T20:15:51;5.60;1.00
5466;DHT22;2755;50.728;7.108;2023-04-05T20:18:25;5.30;1.00
5466;DHT22;2755;50.728;7.108;2023-04-05T20:20:52;5.30;1.00
5466;DHT22;2755;50.728;7.108;2023-04-05T20:23:19;5.40;1.00
5466;DHT22;2755;50.728;7.108;2023-04-05T20:25:47;5.70;1.00
5466;DHT22;2755;50.728;7.108;2023-04-05T20:31:16;5.80;1.00
5466;DHT22;2755;50.728;7.108;2023-04-05T20:36:09;5.30;1.00
5466;DHT22;2755;50.728;7.108;2023-04-05T20:38:43;4.90;1.00
5466;DHT22;2755;50.728;7.108;2023-04-05T20:41:12;4.80;1.00
5466;DHT22;2755;50.728;7.108;2023-04-05T20:43:39;5.20;1.00
5466;DHT22;2755;50.728;7.108;2023-04-05T20:46:05;5.00;1.00
5466;DHT22;2755;50.728;7.108;2023-04-05T20:48:33;5.10;1.00
5466;DHT22;2755;50.728;7.108;2023-04-05T20:51:01;4.70;1.00
5466;DHT22;2755;50.728;7.108;2023-04-05T20:53:28;6.10;1.00
5466;DHT22;2755;50.728;7.108;2023-04-05T20:55:54;5.10;1.00
5466;DHT22;2755;50.728;7.108;2023-04-05T20:58:20;4.80;1.00
5466;DHT22;2755;50.728;7.108;2023-04-05T21:00:46;4.90;2.70
5466;DHT22;2755;50.728;7.108;2023-04-05T21:03:12;4.60;2.90
5466;DHT22;2755;50.728;7.108;2023-04-05T21:05:38;4.60;6.20
5466;DHT22;2755;50.728;7.108;2023-04-05T21:08:04;4.40;9.80
5466;DHT22;2755;50.728;7.108;2023-04-05T21:10:31;5.00;9.60
5466;DHT22;2755;50.728;7.108;2023-04-05T21:12:57;4.40;9.10
5466;DHT22;2755;50.728;7.108;2023-04-05T21:17:52;4.90;11.60
5466;DHT22;2755;50.728;7.108;2023-04-05T21:22:44;4.10;8.50